sensor_id;sensor_type;location;lat;lon;timestamp;P1;durP1;ratioP1;P2;durP2;ratioP2
26538;SDS011;14205;43.200;24.170;2022-08-21T00:01:55;16.48;;;8.13;;
26538;SDS011;14205;43.200;24.170;2022-08-21T00:04:21;15.27;;;8.93;;
26538;SDS011;14205;43.200;24.170;2022-08-21T00:06:47;19.33;;;8.45;;
26538;SDS011;14205;43.200;24.170;2022-08-21T00:09:12;12.63;;;7.97;;
26538;SDS011;14205;43.200;24.170;2022-08-21T00:11:37;17.15;;;8.98;;
26538;SDS011;14205;43.200;24.170;2022-08-21T00:14:04;18.42;;;8.60;;
26538;SDS011;14205;43.200;24.170;2022-08-21T00:16:31;18.58;;;9.43;;
26538;SDS011;14205;43.200;24.170;2022-08-21T00:18:57;15.35;;;9.63;;
26538;SDS011;14205;43.200;24.170;2022-08-21T00:21:22;17.30;;;9.18;;
26538;SDS011;14205;43.200;24.170;2022-08-21T00:23:50;18.08;;;9.35;;
26538;SDS011;14205;43.200;24.170;2022-08-21T00:26:16;15.55;;;9.80;;
26538;SDS011;14205;43.200;24.170;2022-08-21T00:28:42;18.98;;;8.85;;
26538;SDS011;14205;43.200;24.170;2022-08-21T00:31:08;21.02;;;10.52;;
26538;SDS011;14205;43.200;24.170;2022-08-21T00:33:33;21.50;;;9.25;;
26538;SDS011;14205;43.200;24.170;2022-08-21T00:35:59;16.17;;;8.70;;
26538;SDS011;14205;43.200;24.170;2022-08-21T00:38:25;23.23;;;8.60;;
26538;SDS011;14205;43.200;24.170;2022-08-21T00:40:55;16.67;;;9.43;;
26538;SDS011;14205;43.200;24.170;2022-08-21T00:43:24;16.08;;;9.02;;
26538;SDS011;14205;43.200;24.170;2022-08-21T00:45:52;16.77;;;9.38;;
26538;SDS011;14205;43.200;24.170;2022-08-21T00:48:19;21.73;;;9.50;;
26538;SDS011;14205;43.200;24.170;2022-08-21T00:50:56;19.20;;;9.20;;
26538;SDS011;14205;43.200;24.170;2022-08-21T00:53:29;18.40;;;10.15;;
26538;SDS011;14205;43.200;24.170;2022-08-21T00:55:56;12.57;;;9.40;;
26538;SDS011;14205;43.200;24.170;2022-08-21T00:58:23;18.58;;;9.75;;
26538;SDS011;14205;43.200;24.170;2022-08-21T01:00:51;16.33;;;9.82;;
26538;SDS011;14205;43.200;24.170;2022-08-21T01:03:20;15.95;;;10.43;;
26538;SDS011;14205;43.200;24.170;2022-08-21T01:05:48;19.15;;;9.20;;
26538;SDS011;14205;43.200;24.170;2022-08-21T01:08:13;15.75;;;10.65;;
26538;SDS011;14205;43.200;24.170;2022-08-21T01:10:42;19.98;;;10.43;;
26538;SDS011;14205;43.200;24.170;2022-08-21T01:13:09;20.77;;;10.55;;
26538;SDS011;14205;43.200;24.170;2022-08-21T01:15:38;13.50;;;9.93;;
26538;SDS011;14205;43.200;24.170;2022-08-21T01:18:07;20.85;;;9.95;;
26538;SDS011;14205;43.200;24.170;2022-08-21T01:20:36;17.80;;;10.02;;
26538;SDS011;14205;43.200;24.170;2022-08-21T01:23:02;18.92;;;11.80;;
26538;SDS011;14205;43.200;24.170;2022-08-21T01:25:29;13.45;;;11.05;;
26538;SDS011;14205;43.200;24.170;2022-08-21T01:27:56;15.52;;;11.23;;
26538;SDS011;14205;43.200;24.170;2022-08-21T01:30:24;18.42;;;11.15;;
26538;SDS011;14205;43.200;24.170;2022-08-21T01:32:52;17.90;;;10.85;;
26538;SDS011;14205;43.200;24.170;2022-08-21T01:35:19;17.92;;;10.27;;
26538;SDS011;14205;43.200;24.170;2022-08-21T01:37:45;14.50;;;10.77;;
26538;SDS011;14205;43.200;24.170;2022-08-21T01:40:12;17.15;;;10.32;;
26538;SDS011;14205;43.200;24.170;2022-08-21T01:42:40;15.80;;;9.55;;
26538;SDS011;14205;43.200;24.170;2022-08-21T01:45:06;12.25;;;9.65;;
26538;SDS011;14205;43.200;24.170;2022-08-21T01:47:33;17.52;;;9.30;;
26538;SDS011;14205;43.200;24.170;2022-08-21T01:49:58;21.33;;;11.10;;
26538;SDS011;14205;43.200;24.170;2022-08-21T01:52:24;17.90;;;11.27;;
26538;SDS011;14205;43.200;24.170;2022-08-21T01:54:50;19.90;;;12.40;;
26538;SDS011;14205;43.200;24.170;2022-08-21T01:57:15;16.10;;;11.05;;
26538;SDS011;14205;43.200;24.170;2022-08-21T01:59:40;21.10;;;10.80;;
26538;SDS011;14205;43.200;24.170;2022-08-21T02:02:06;16.13;;;10.57;;
26538;SDS011;14205;43.200;24.170;2022-08-21T02:04:32;20.70;;;12.48;;
26538;SDS011;14205;43.200;24.170;2022-08-21T02:06:59;21.25;;;12.40;;
26538;SDS011;14205;43.200;24.170;2022-08-21T02:09:25;19.70;;;12.02;;
26538;SDS011;14205;43.200;24.170;2022-08-21T02:11:50;19.67;;;12.75;;
26538;SDS011;14205;43.200;24.170;2022-08-21T02:14:16;23.23;;;12.90;;
26538;SDS011;14205;43.200;24.170;2022-08-21T02:16:43;31.95;;;12.80;;
26538;SDS011;14205;43.200;24.170;2022-08-21T02:19:10;16.52;;;12.23;;
26538;SDS011;14205;43.200;24.170;2022-08-21T02:21:36;17.80;;;10.65;;
26538;SDS011;14205;43.200;24.170;2022-08-21T02:24:01;16.55;;;10.63;;
26538;SDS011;14205;43.200;24.170;2022-08-21T02:26:27;14.88;;;10.82;;
26538;SDS011;14205;43.200;24.170;2022-08-21T02:28:53;20.42;;;10.45;;
26538;SDS011;14205;43.200;24.170;2022-08-21T02:31:18;16.65;;;11.18;;
26538;SDS011;14205;43.200;24.170;2022-08-21T02:33:44;16.90;;;11.55;;
26538;SDS011;14205;43.200;24.170;2022-08-21T02:36:10;20.33;;;12.13;;
26538;SDS011;14205;43.200;24.170;2022-08-21T02:38:37;18.23;;;11.80;;
26538;SDS011;14205;43.200;24.170;2022-08-21T02:41:08;24.58;;;11.63;;
26538;SDS011;14205;43.200;24.170;2022-08-21T02:43:36;22.80;;;11.95;;
26538;SDS011;14205;43.200;24.170;2022-08-21T02:46:02;18.60;;;12.10;;
26538;SDS011;14205;43.200;24.170;2022-08-21T02:48:31;22.13;;;12.25;;
26538;SDS011;14205;43.200;24.170;2022-08-21T02:51:03;17.98;;;12.15;;
26538;SDS011;14205;43.200;24.170;2022-08-21T02:53:31;20.25;;;12.52;;
26538;SDS011;14205;43.200;24.170;2022-08-21T02:55:58;19.00;;;13.05;;
26538;SDS011;14205;43.200;24.170;2022-08-21T02:58:26;19.95;;;13.32;;
26538;SDS011;14205;43.200;24.170;2022-08-21T03:00:56;22.58;;;13.32;;
26538;SDS011;14205;43.200;24.170;2022-08-21T03:03:23;18.75;;;13.70;;
26538;SDS011;14205;43.200;24.170;2022-08-21T03:05:49;21.02;;;13.43;;
26538;SDS011;14205;43.200;24.170;2022-08-21T03:08:16;22.48;;;12.55;;
26538;SDS011;14205;43.200;24.170;2022-08-21T03:10:45;25.05;;;13.30;;
26538;SDS011;14205;43.200;24.170;2022-08-21T03:13:13;21.10;;;13.45;;
26538;SDS011;14205;43.200;24.170;2022-08-21T03:15:39;25.08;;;13.38;;
26538;SDS011;14205;43.200;24.170;2022-08-21T03:18:05;23.90;;;11.98;;
26538;SDS011;14205;43.200;24.170;2022-08-21T03:20:33;18.48;;;11.65;;
26538;SDS011;14205;43.200;24.170;2022-08-21T03:22:59;16.77;;;11.45;;
26538;SDS011;14205;43.200;24.170;2022-08-21T03:25:26;23.80;;;11.85;;
26538;SDS011;14205;43.200;24.170;2022-08-21T03:27:52;19.48;;;11.48;;
26538;SDS011;14205;43.200;24.170;2022-08-21T03:30:18;22.90;;;10.93;;
26538;SDS011;14205;43.200;24.170;2022-08-21T03:32:46;17.83;;;10.98;;
26538;SDS011;14205;43.200;24.170;2022-08-21T03:35:13;16.92;;;10.50;;
26538;SDS011;14205;43.200;24.170;2022-08-21T03:37:39;19.40;;;10.75;;
26538;SDS011;14205;43.200;24.170;2022-08-21T03:40:06;15.65;;;9.95;;
26538;SDS011;14205;43.200;24.170;2022-08-21T03:42:33;16.17;;;9.70;;
26538;SDS011;14205;43.200;24.170;2022-08-21T03:44:58;17.75;;;8.35;;
26538;SDS011;14205;43.200;24.170;2022-08-21T03:47:24;14.55;;;7.47;;
26538;SDS011;14205;43.200;24.170;2022-08-21T03:49:50;12.23;;;6.75;;
26538;SDS011;14205;43.200;24.170;2022-08-21T03:52:15;11.63;;;6.18;;
26538;SDS011;14205;43.200;24.170;2022-08-21T03:54:41;10.68;;;6.25;;
26538;SDS011;14205;43.200;24.170;2022-08-21T03:57:08;9.18;;;5.97;;
26538;SDS011;14205;43.200;24.170;2022-08-21T03:59:34;13.27;;;6.20;;
26538;SDS011;14205;43.200;24.170;2022-08-21T04:02:00;11.85;;;6.72;;
26538;SDS011;14205;43.200;24.170;2022-08-21T04:04:28;13.55;;;6.43;;
26538;SDS011;14205;43.200;24.170;2022-08-21T04:06:55;16.63;;;7.25;;
26538;SDS011;14205;43.200;24.170;2022-08-21T04:09:20;16.60;;;6.88;;
26538;SDS011;14205;43.200;24.170;2022-08-21T04:11:46;15.18;;;6.70;;
26538;SDS011;14205;43.200;24.170;2022-08-21T04:14:12;13.35;;;6.82;;
26538;SDS011;14205;43.200;24.170;2022-08-21T04:16:39;15.40;;;7.35;;
26538;SDS011;14205;43.200;24.170;2022-08-21T04:19:06;15.35;;;6.70;;
26538;SDS011;14205;43.200;24.170;2022-08-21T04:21:32;14.98;;;5.63;;
26538;SDS011;14205;43.200;24.170;2022-08-21T04:23:58;12.07;;;5.85;;
26538;SDS011;14205;43.200;24.170;2022-08-21T04:26:24;14.27;;;6.35;;
26538;SDS011;14205;43.200;24.170;2022-08-21T04:28:50;11.98;;;6.82;;
26538;SDS011;14205;43.200;24.170;2022-08-21T04:31:17;13.70;;;7.20;;
26538;SDS011;14205;43.200;24.170;2022-08-21T04:33:42;14.68;;;8.00;;
26538;SDS011;14205;43.200;24.170;2022-08-21T04:36:08;14.40;;;6.18;;
26538;SDS011;14205;43.200;24.170;2022-08-21T04:38:34;10.25;;;5.63;;
26538;SDS011;14205;43.200;24.170;2022-08-21T04:40:59;13.55;;;5.90;;
26538;SDS011;14205;43.200;24.170;2022-08-21T04:43:25;11.15;;;5.78;;
26538;SDS011;14205;43.200;24.170;2022-08-21T04:45:51;13.13;;;5.82;;
26538;SDS011;14205;43.200;24.170;2022-08-21T04:48:19;11.95;;;6.43;;
26538;SDS011;14205;43.200;24.170;2022-08-21T04:50:50;12.27;;;6.97;;
26538;SDS011;14205;43.200;24.170;2022-08-21T04:53:47;11.80;;;6.50;;
26538;SDS011;14205;43.200;24.170;2022-08-21T04:56:21;16.00;;;6.57;;
26538;SDS011;14205;43.200;24.170;2022-08-21T04:58:50;9.77;;;5.75;;
26538;SDS011;14205;43.200;24.170;2022-08-21T05:01:19;16.45;;;5.75;;
26538;SDS011;14205;43.200;24.170;2022-08-21T05:03:47;13.55;;;5.75;;
26538;SDS011;14205;43.200;24.170;2022-08-21T05:06:16;13.52;;;6.15;;
26538;SDS011;14205;43.200;24.170;2022-08-21T05:08:42;12.02;;;6.30;;
26538;SDS011;14205;43.200;24.170;2022-08-21T05:11:10;13.73;;;6.05;;
26538;SDS011;14205;43.200;24.170;2022-08-21T05:13:36;18.20;;;6.40;;
26538;SDS011;14205;43.200;24.170;2022-08-21T05:16:02;19.23;;;6.53;;
26538;SDS011;14205;43.200;24.170;2022-08-21T05:18:28;11.55;;;6.22;;
26538;SDS011;14205;43.200;24.170;2022-08-21T05:20:54;12.55;;;6.07;;
26538;SDS011;14205;43.200;24.170;2022-08-21T05:23:19;18.80;;;7.13;;
26538;SDS011;14205;43.200;24.170;2022-08-21T05:25:45;19.98;;;7.43;;
26538;SDS011;14205;43.200;24.170;2022-08-21T05:28:10;14.15;;;6.18;;
26538;SDS011;14205;43.200;24.170;2022-08-21T05:30:37;11.15;;;6.72;;
26538;SDS011;14205;43.200;24.170;2022-08-21T05:33:03;13.32;;;6.88;;
26538;SDS011;14205;43.200;24.170;2022-08-21T05:35:30;21.58;;;7.55;;
26538;SDS011;14205;43.200;24.170;2022-08-21T05:37:57;12.23;;;6.80;;
26538;SDS011;14205;43.200;24.170;2022-08-21T05:40:23;16.40;;;7.55;;
26538;SDS011;14205;43.200;24.170;2022-08-21T05:42:49;17.92;;;7.25;;
26538;SDS011;14205;43.200;24.170;2022-08-21T05:45:15;15.73;;;7.13;;
26538;SDS011;14205;43.200;24.170;2022-08-21T05:47:40;11.52;;;6.57;;
26538;SDS011;14205;43.200;24.170;2022-08-21T05:50:06;19.88;;;8.20;;
26538;SDS011;14205;43.200;24.170;2022-08-21T05:52:31;13.85;;;7.30;;
26538;SDS011;14205;43.200;24.170;2022-08-21T05:54:57;23.35;;;7.93;;
26538;SDS011;14205;43.200;24.170;2022-08-21T05:57:22;13.88;;;7.35;;
26538;SDS011;14205;43.200;24.170;2022-08-21T05:59:48;13.82;;;7.82;;
26538;SDS011;14205;43.200;24.170;2022-08-21T06:02:16;15.15;;;7.22;;
26538;SDS011;14205;43.200;24.170;2022-08-21T06:04:43;10.75;;;7.20;;
26538;SDS011;14205;43.200;24.170;2022-08-21T06:07:08;15.75;;;7.72;;
26538;SDS011;14205;43.200;24.170;2022-08-21T06:09:34;15.13;;;7.85;;
26538;SDS011;14205;43.200;24.170;2022-08-21T06:12:03;13.25;;;8.60;;
26538;SDS011;14205;43.200;24.170;2022-08-21T06:14:30;16.48;;;10.02;;
26538;SDS011;14205;43.200;24.170;2022-08-21T06:17:01;22.25;;;10.98;;
26538;SDS011;14205;43.200;24.170;2022-08-21T06:19:30;20.90;;;9.90;;
26538;SDS011;14205;43.200;24.170;2022-08-21T06:21:56;17.33;;;9.00;;
26538;SDS011;14205;43.200;24.170;2022-08-21T06:24:21;16.77;;;9.25;;
26538;SDS011;14205;43.200;24.170;2022-08-21T06:26:46;14.55;;;8.45;;
26538;SDS011;14205;43.200;24.170;2022-08-21T06:29:12;15.30;;;9.60;;
26538;SDS011;14205;43.200;24.170;2022-08-21T06:31:41;18.88;;;8.52;;
26538;SDS011;14205;43.200;24.170;2022-08-21T06:34:07;13.93;;;7.75;;
26538;SDS011;14205;43.200;24.170;2022-08-21T06:36:32;19.95;;;9.02;;
26538;SDS011;14205;43.200;24.170;2022-08-21T06:38:58;21.17;;;9.95;;
26538;SDS011;14205;43.200;24.170;2022-08-21T06:41:24;16.80;;;10.63;;
26538;SDS011;14205;43.200;24.170;2022-08-21T06:43:49;16.45;;;10.23;;
26538;SDS011;14205;43.200;24.170;2022-08-21T06:46:15;15.88;;;10.70;;
26538;SDS011;14205;43.200;24.170;2022-08-21T06:48:40;16.20;;;9.60;;
26538;SDS011;14205;43.200;24.170;2022-08-21T06:51:06;16.52;;;10.45;;
26538;SDS011;14205;43.200;24.170;2022-08-21T06:53:31;18.17;;;11.02;;
26538;SDS011;14205;43.200;24.170;2022-08-21T06:55:57;15.80;;;9.90;;
26538;SDS011;14205;43.200;24.170;2022-08-21T06:58:22;17.13;;;10.30;;
26538;SDS011;14205;43.200;24.170;2022-08-21T07:00:49;14.70;;;9.50;;
26538;SDS011;14205;43.200;24.170;2022-08-21T07:03:26;17.30;;;8.90;;
26538;SDS011;14205;43.200;24.170;2022-08-21T07:06:00;15.18;;;9.15;;
26538;SDS011;14205;43.200;24.170;2022-08-21T07:08:26;15.30;;;9.00;;
26538;SDS011;14205;43.200;24.170;2022-08-21T07:10:53;15.35;;;8.45;;
26538;SDS011;14205;43.200;24.170;2022-08-21T07:13:21;14.88;;;9.45;;
26538;SDS011;14205;43.200;24.170;2022-08-21T07:15:46;19.02;;;10.23;;
26538;SDS011;14205;43.200;24.170;2022-08-21T07:18:12;17.67;;;10.55;;
26538;SDS011;14205;43.200;24.170;2022-08-21T07:20:39;16.75;;;10.05;;
26538;SDS011;14205;43.200;24.170;2022-08-21T07:23:06;15.38;;;10.50;;
26538;SDS011;14205;43.200;24.170;2022-08-21T07:25:35;18.77;;;11.05;;
26538;SDS011;14205;43.200;24.170;2022-08-21T07:28:01;13.82;;;10.68;;
26538;SDS011;14205;43.200;24.170;2022-08-21T07:30:26;17.38;;;9.30;;
26538;SDS011;14205;43.200;24.170;2022-08-21T07:32:52;17.90;;;9.65;;
26538;SDS011;14205;43.200;24.170;2022-08-21T07:35:18;17.65;;;9.10;;
26538;SDS011;14205;43.200;24.170;2022-08-21T07:37:44;16.45;;;8.73;;
26538;SDS011;14205;43.200;24.170;2022-08-21T07:40:10;16.92;;;9.45;;
26538;SDS011;14205;43.200;24.170;2022-08-21T07:42:39;12.25;;;8.52;;
26538;SDS011;14205;43.200;24.170;2022-08-21T07:45:09;14.40;;;9.32;;
26538;SDS011;14205;43.200;24.170;2022-08-21T07:47:35;18.52;;;8.77;;
26538;SDS011;14205;43.200;24.170;2022-08-21T07:50:01;15.15;;;8.18;;
26538;SDS011;14205;43.200;24.170;2022-08-21T07:52:26;17.00;;;8.35;;
26538;SDS011;14205;43.200;24.170;2022-08-21T07:54:52;17.23;;;8.15;;
26538;SDS011;14205;43.200;24.170;2022-08-21T07:57:17;12.20;;;8.15;;
26538;SDS011;14205;43.200;24.170;2022-08-21T07:59:43;14.35;;;8.85;;
26538;SDS011;14205;43.200;24.170;2022-08-21T08:02:08;14.23;;;8.32;;
26538;SDS011;14205;43.200;24.170;2022-08-21T08:04:34;14.80;;;8.85;;
26538;SDS011;14205;43.200;24.170;2022-08-21T08:06:59;11.60;;;8.73;;
26538;SDS011;14205;43.200;24.170;2022-08-21T08:09:24;15.75;;;8.23;;
26538;SDS011;14205;43.200;24.170;2022-08-21T08:11:50;13.93;;;8.45;;
26538;SDS011;14205;43.200;24.170;2022-08-21T08:14:16;18.08;;;9.05;;
26538;SDS011;14205;43.200;24.170;2022-08-21T08:16:42;14.93;;;8.27;;
26538;SDS011;14205;43.200;24.170;2022-08-21T08:19:07;13.75;;;8.43;;
26538;SDS011;14205;43.200;24.170;2022-08-21T08:21:33;15.45;;;8.20;;
26538;SDS011;14205;43.200;24.170;2022-08-21T08:23:59;15.57;;;8.25;;
26538;SDS011;14205;43.200;24.170;2022-08-21T08:26:25;16.05;;;9.15;;
26538;SDS011;14205;43.200;24.170;2022-08-21T08:28:51;15.20;;;8.77;;
26538;SDS011;14205;43.200;24.170;2022-08-21T08:31:16;12.45;;;8.30;;
26538;SDS011;14205;43.200;24.170;2022-08-21T08:33:42;11.70;;;7.80;;
26538;SDS011;14205;43.200;24.170;2022-08-21T08:36:12;15.73;;;8.32;;
26538;SDS011;14205;43.200;24.170;2022-08-21T08:38:40;18.58;;;10.50;;
26538;SDS011;14205;43.200;24.170;2022-08-21T08:41:09;14.98;;;9.48;;
26538;SDS011;14205;43.200;24.170;2022-08-21T08:43:38;17.38;;;9.30;;
26538;SDS011;14205;43.200;24.170;2022-08-21T08:46:08;16.67;;;9.35;;
26538;SDS011;14205;43.200;24.170;2022-08-21T08:51:04;11.80;;;8.50;;
26538;SDS011;14205;43.200;24.170;2022-08-21T08:53:45;15.25;;;9.73;;
26538;SDS011;14205;43.200;24.170;2022-08-21T08:56:21;13.18;;;10.07;;
26538;SDS011;14205;43.200;24.170;2022-08-21T08:58:51;14.23;;;9.45;;
26538;SDS011;14205;43.200;24.170;2022-08-21T09:01:18;14.10;;;9.00;;
26538;SDS011;14205;43.200;24.170;2022-08-21T09:03:45;12.68;;;9.15;;
26538;SDS011;14205;43.200;24.170;2022-08-21T09:08:49;14.10;;;8.90;;
26538;SDS011;14205;43.200;24.170;2022-08-21T09:11:29;13.50;;;8.57;;
26538;SDS011;14205;43.200;24.170;2022-08-21T09:16:33;17.35;;;9.55;;
26538;SDS011;14205;43.200;24.170;2022-08-21T09:27:13;14.43;;;9.13;;
26538;SDS011;14205;43.200;24.170;2022-08-21T09:29:41;35.05;;;22.92;;
26538;SDS011;14205;43.200;24.170;2022-08-21T09:32:19;40.65;;;21.35;;
26538;SDS011;14205;43.200;24.170;2022-08-21T09:34:59;14.85;;;9.40;;
26538;SDS011;14205;43.200;24.170;2022-08-21T09:37:30;72.20;;;38.80;;
26538;SDS011;14205;43.200;24.170;2022-08-21T09:39:59;14.02;;;7.03;;
26538;SDS011;14205;43.200;24.170;2022-08-21T09:42:27;40.10;;;20.75;;
26538;SDS011;14205;43.200;24.170;2022-08-21T09:45:06;12.48;;;7.95;;
26538;SDS011;14205;43.200;24.170;2022-08-21T09:47:42;15.68;;;8.35;;
26538;SDS011;14205;43.200;24.170;2022-08-21T09:52:45;18.38;;;7.35;;
26538;SDS011;14205;43.200;24.170;2022-08-21T09:55:33;12.10;;;6.65;;
26538;SDS011;14205;43.200;24.170;2022-08-21T09:58:29;12.20;;;7.05;;
26538;SDS011;14205;43.200;24.170;2022-08-21T10:01:00;10.93;;;6.43;;
26538;SDS011;14205;43.200;24.170;2022-08-21T10:03:28;12.90;;;6.30;;
26538;SDS011;14205;43.200;24.170;2022-08-21T10:08:19;12.93;;;6.88;;
26538;SDS011;14205;43.200;24.170;2022-08-21T10:10:49;9.45;;;5.75;;
26538;SDS011;14205;43.200;24.170;2022-08-21T10:13:21;12.00;;;6.05;;
26538;SDS011;14205;43.200;24.170;2022-08-21T10:18:51;12.25;;;5.57;;
26538;SDS011;14205;43.200;24.170;2022-08-21T10:21:28;11.40;;;6.05;;
26538;SDS011;14205;43.200;24.170;2022-08-21T10:24:19;9.40;;;6.68;;
26538;SDS011;14205;43.200;24.170;2022-08-21T10:27:53;11.45;;;6.63;;
26538;SDS011;14205;43.200;24.170;2022-08-21T10:29:51;13.05;;;6.32;;
26538;SDS011;14205;43.200;24.170;2022-08-21T10:40:38;9.75;;;5.88;;
26538;SDS011;14205;43.200;24.170;2022-08-21T10:48:35;11.18;;;6.10;;
26538;SDS011;14205;43.200;24.170;2022-08-21T10:51:20;17.33;;;6.70;;
26538;SDS011;14205;43.200;24.170;2022-08-21T10:56:36;14.32;;;6.32;;
26538;SDS011;14205;43.200;24.170;2022-08-21T11:05:13;5.90;;;4.50;;
26538;SDS011;14205;43.200;24.170;2022-08-21T11:07:51;6.78;;;4.65;;
26538;SDS011;14205;43.200;24.170;2022-08-21T11:10:27;8.32;;;5.15;;
26538;SDS011;14205;43.200;24.170;2022-08-21T11:13:00;9.00;;;4.43;;
26538;SDS011;14205;43.200;24.170;2022-08-21T11:15:36;7.13;;;4.17;;
26538;SDS011;14205;43.200;24.170;2022-08-21T11:23:46;7.35;;;4.38;;
26538;SDS011;14205;43.200;24.170;2022-08-21T11:26:30;13.50;;;4.85;;
26538;SDS011;14205;43.200;24.170;2022-08-21T11:29:02;8.80;;;4.85;;
26538;SDS011;14205;43.200;24.170;2022-08-21T11:40:06;7.15;;;3.47;;
26538;SDS011;14205;43.200;24.170;2022-08-21T11:42:43;6.35;;;3.75;;
26538;SDS011;14205;43.200;24.170;2022-08-21T11:45:39;10.23;;;4.00;;
26538;SDS011;14205;43.200;24.170;2022-08-21T11:50:54;9.30;;;4.50;;
26538;SDS011;14205;43.200;24.170;2022-08-21T11:53:30;10.13;;;4.30;;
26538;SDS011;14205;43.200;24.170;2022-08-21T11:56:25;14.27;;;4.90;;
26538;SDS011;14205;43.200;24.170;2022-08-21T11:58:58;11.88;;;4.50;;
26538;SDS011;14205;43.200;24.170;2022-08-21T12:06:32;7.97;;;4.65;;
26538;SDS011;14205;43.200;24.170;2022-08-21T12:09:05;9.70;;;4.38;;
26538;SDS011;14205;43.200;24.170;2022-08-21T12:11:43;11.52;;;4.28;;
26538;SDS011;14205;43.200;24.170;2022-08-21T12:14:16;10.40;;;3.70;;
26538;SDS011;14205;43.200;24.170;2022-08-21T12:16:44;7.95;;;3.70;;
26538;SDS011;14205;43.200;24.170;2022-08-21T12:24:20;10.07;;;4.20;;
26538;SDS011;14205;43.200;24.170;2022-08-21T12:29:45;6.35;;;3.75;;
26538;SDS011;14205;43.200;24.170;2022-08-21T12:34:50;8.45;;;4.07;;
26538;SDS011;14205;43.200;24.170;2022-08-21T12:40:10;7.63;;;3.80;;
26538;SDS011;14205;43.200;24.170;2022-08-21T12:42:44;9.40;;;3.83;;
26538;SDS011;14205;43.200;24.170;2022-08-21T12:45:19;7.53;;;3.65;;
26538;SDS011;14205;43.200;24.170;2022-08-21T12:50:48;6.00;;;3.30;;
26538;SDS011;14205;43.200;24.170;2022-08-21T12:55:44;8.88;;;4.13;;
26538;SDS011;14205;43.200;24.170;2022-08-21T12:58:19;9.73;;;3.63;;
26538;SDS011;14205;43.200;24.170;2022-08-21T13:00:54;13.68;;;4.20;;
26538;SDS011;14205;43.200;24.170;2022-08-21T13:03:24;9.25;;;4.30;;
26538;SDS011;14205;43.200;24.170;2022-08-21T13:05:50;8.45;;;3.85;;
26538;SDS011;14205;43.200;24.170;2022-08-21T13:08:18;12.63;;;4.10;;
26538;SDS011;14205;43.200;24.170;2022-08-21T13:10:45;7.90;;;4.13;;
26538;SDS011;14205;43.200;24.170;2022-08-21T13:13:21;8.88;;;3.50;;
26538;SDS011;14205;43.200;24.170;2022-08-21T13:15:49;9.85;;;4.00;;
26538;SDS011;14205;43.200;24.170;2022-08-21T13:18:25;6.80;;;3.72;;
26538;SDS011;14205;43.200;24.170;2022-08-21T13:20:52;8.77;;;3.80;;
26538;SDS011;14205;43.200;24.170;2022-08-21T13:23:29;12.93;;;4.15;;
26538;SDS011;14205;43.200;24.170;2022-08-21T13:25:55;8.20;;;4.03;;
26538;SDS011;14205;43.200;24.170;2022-08-21T13:28:21;8.68;;;3.85;;
26538;SDS011;14205;43.200;24.170;2022-08-21T13:30:48;7.55;;;4.03;;
26538;SDS011;14205;43.200;24.170;2022-08-21T13:33:21;10.30;;;4.35;;
26538;SDS011;14205;43.200;24.170;2022-08-21T13:38:30;11.07;;;4.00;;
26538;SDS011;14205;43.200;24.170;2022-08-21T13:40:59;9.27;;;3.80;;
26538;SDS011;14205;43.200;24.170;2022-08-21T13:43:35;9.18;;;3.70;;
26538;SDS011;14205;43.200;24.170;2022-08-21T13:46:02;13.18;;;4.40;;
26538;SDS011;14205;43.200;24.170;2022-08-21T13:48:34;11.25;;;4.43;;
26538;SDS011;14205;43.200;24.170;2022-08-21T13:51:01;7.18;;;4.20;;
26538;SDS011;14205;43.200;24.170;2022-08-21T13:53:29;9.70;;;4.30;;
26538;SDS011;14205;43.200;24.170;2022-08-21T13:55:56;10.85;;;3.88;;
26538;SDS011;14205;43.200;24.170;2022-08-21T14:00:51;8.48;;;4.03;;
26538;SDS011;14205;43.200;24.170;2022-08-21T14:06:16;8.20;;;4.15;;
26538;SDS011;14205;43.200;24.170;2022-08-21T14:08:53;10.70;;;4.65;;
26538;SDS011;14205;43.200;24.170;2022-08-21T14:11:27;11.35;;;4.28;;
26538;SDS011;14205;43.200;24.170;2022-08-21T14:13:58;9.52;;;4.25;;
26538;SDS011;14205;43.200;24.170;2022-08-21T14:16:29;6.53;;;4.30;;
26538;SDS011;14205;43.200;24.170;2022-08-21T14:21:43;11.18;;;4.70;;
26538;SDS011;14205;43.200;24.170;2022-08-21T14:24:13;9.48;;;4.28;;
26538;SDS011;14205;43.200;24.170;2022-08-21T14:26:49;10.00;;;4.50;;
26538;SDS011;14205;43.200;24.170;2022-08-21T14:29:18;10.52;;;4.30;;
26538;SDS011;14205;43.200;24.170;2022-08-21T14:31:55;8.55;;;4.20;;
26538;SDS011;14205;43.200;24.170;2022-08-21T14:34:26;10.02;;;4.00;;
26538;SDS011;14205;43.200;24.170;2022-08-21T14:36:54;10.57;;;4.65;;
26538;SDS011;14205;43.200;24.170;2022-08-21T14:39:20;9.00;;;4.53;;
26538;SDS011;14205;43.200;24.170;2022-08-21T14:41:46;7.38;;;4.20;;
26538;SDS011;14205;43.200;24.170;2022-08-21T14:44:14;6.25;;;4.10;;
26538;SDS011;14205;43.200;24.170;2022-08-21T14:46:41;10.48;;;4.72;;
26538;SDS011;14205;43.200;24.170;2022-08-21T14:49:07;9.57;;;4.28;;
26538;SDS011;14205;43.200;24.170;2022-08-21T14:51:32;9.43;;;4.25;;
26538;SDS011;14205;43.200;24.170;2022-08-21T14:53:58;10.38;;;4.68;;
26538;SDS011;14205;43.200;24.170;2022-08-21T14:56:23;9.93;;;4.68;;
26538;SDS011;14205;43.200;24.170;2022-08-21T14:58:50;9.90;;;4.60;;
26538;SDS011;14205;43.200;24.170;2022-08-21T15:01:18;10.63;;;4.72;;
26538;SDS011;14205;43.200;24.170;2022-08-21T15:03:47;10.30;;;4.95;;
26538;SDS011;14205;43.200;24.170;2022-08-21T15:06:14;11.65;;;5.05;;
26538;SDS011;14205;43.200;24.170;2022-08-21T15:08:42;8.57;;;4.70;;
26538;SDS011;14205;43.200;24.170;2022-08-21T15:11:08;10.80;;;4.97;;
26538;SDS011;14205;43.200;24.170;2022-08-21T15:13:41;10.82;;;4.28;;
26538;SDS011;14205;43.200;24.170;2022-08-21T15:16:08;9.68;;;4.65;;
26538;SDS011;14205;43.200;24.170;2022-08-21T15:18:35;9.38;;;4.60;;
26538;SDS011;14205;43.200;24.170;2022-08-21T15:21:00;12.38;;;4.40;;
26538;SDS011;14205;43.200;24.170;2022-08-21T15:23:26;7.18;;;4.47;;
26538;SDS011;14205;43.200;24.170;2022-08-21T15:25:51;12.88;;;4.40;;
26538;SDS011;14205;43.200;24.170;2022-08-21T15:28:18;10.75;;;4.82;;
26538;SDS011;14205;43.200;24.170;2022-08-21T15:30:46;11.18;;;4.93;;
26538;SDS011;14205;43.200;24.170;2022-08-21T15:33:12;9.48;;;4.35;;
26538;SDS011;14205;43.200;24.170;2022-08-21T15:35:38;6.07;;;4.32;;
26538;SDS011;14205;43.200;24.170;2022-08-21T15:38:04;8.55;;;5.63;;
26538;SDS011;14205;43.200;24.170;2022-08-21T15:40:30;13.50;;;5.85;;
26538;SDS011;14205;43.200;24.170;2022-08-21T15:42:57;11.57;;;5.57;;
26538;SDS011;14205;43.200;24.170;2022-08-21T15:45:26;6.95;;;4.97;;
26538;SDS011;14205;43.200;24.170;2022-08-21T15:47:52;12.63;;;5.50;;
26538;SDS011;14205;43.200;24.170;2022-08-21T15:50:18;9.98;;;5.30;;
26538;SDS011;14205;43.200;24.170;2022-08-21T15:52:44;6.75;;;4.30;;
26538;SDS011;14205;43.200;24.170;2022-08-21T15:55:10;12.00;;;4.70;;
26538;SDS011;14205;43.200;24.170;2022-08-21T15:57:37;11.95;;;4.78;;
26538;SDS011;14205;43.200;24.170;2022-08-21T16:00:11;9.95;;;4.75;;
26538;SDS011;14205;43.200;24.170;2022-08-21T16:02:40;9.93;;;4.70;;
26538;SDS011;14205;43.200;24.170;2022-08-21T16:05:10;11.25;;;5.32;;
26538;SDS011;14205;43.200;24.170;2022-08-21T16:07:37;10.27;;;4.60;;